createdAt,value
2023-06-17T00:01:01.666Z,56.16
2023-06-17T00:04:04.278Z,56.09
2023-06-17T00:07:06.581Z,56.12
2023-06-17T00:10:09.704Z,56.51
2023-06-17T00:13:11.505Z,56.52
2023-06-17T00:16:14.016Z,57.22
2023-06-17T00:19:18.407Z,57.35
2023-06-17T00:22:20.215Z,56.60
2023-06-17T00:25:22.332Z,56.83
2023-06-17T00:28:24.142Z,56.89
2023-06-17T00:31:27.547Z,57.21
2023-06-17T00:34:29.557Z,57.35
2023-06-17T00:37:32.973Z,57.69
2023-06-17T00:40:34.704Z,58.76
2023-06-17T00:43:36.632Z,57.87
2023-06-17T00:46:41.065Z,57.89
2023-06-17T00:49:45.739Z,57.89
2023-06-17T00:52:53.312Z,58.24
2023-06-17T00:55:55.375Z,58.13
2023-06-17T00:58:58.819Z,57.97
2023-06-17T01:02:00.771Z,58.10
2023-06-17T01:05:03.040Z,58.58
2023-06-17T01:08:35.108Z,59.04
2023-06-17T01:11:40.019Z,58.54
2023-06-17T01:14:43.535Z,58.37
2023-06-17T01:17:47.653Z,59.28
2023-06-17T01:20:55.638Z,58.78
2023-06-17T01:24:03.510Z,58.80
2023-06-17T01:27:05.514Z,58.79
2023-06-17T01:30:09.305Z,59.00
2023-06-17T01:33:14.228Z,59.02
2023-06-17T01:36:23.645Z,58.97
2023-06-17T01:39:27.031Z,59.14
2023-06-17T01:42:32.836Z,58.98
2023-06-17T01:45:35.743Z,59.06
2023-06-17T01:48:39.864Z,59.19
2023-06-17T01:51:41.920Z,59.52
2023-06-17T01:54:43.847Z,58.96
2023-06-17T01:57:45.804Z,58.95
2023-06-17T02:00:47.726Z,59.16
2023-06-17T02:03:49.762Z,58.85
2023-06-17T02:06:52.962Z,59.07
2023-06-17T02:09:56.142Z,58.93
2023-06-17T02:12:58.054Z,59.05
2023-06-17T02:15:59.962Z,58.94
2023-06-17T02:19:03.527Z,58.98
2023-06-17T02:22:05.712Z,58.88
2023-06-17T02:25:08.079Z,58.94
2023-06-17T02:28:11.603Z,58.73
2023-06-17T02:31:13.523Z,58.46
2023-06-17T02:34:15.571Z,58.40
2023-06-17T02:37:17.763Z,58.39
2023-06-17T02:40:21.428Z,58.17
2023-06-17T02:43:26.302Z,58.26
2023-06-17T02:46:28.567Z,58.19
2023-06-17T02:49:31.248Z,58.07
2023-06-17T02:52:35.538Z,58.05
2023-06-17T02:55:37.826Z,58.09
2023-06-17T02:58:48.884Z,57.98
2023-06-17T03:01:51.058Z,57.66
2023-06-17T03:04:55.191Z,57.42
2023-06-17T03:07:58.913Z,57.60
2023-06-17T03:11:01.322Z,57.53
2023-06-17T03:14:04.977Z,57.62
2023-06-17T03:17:11.877Z,57.61
2023-06-17T03:20:14.595Z,57.03
2023-06-17T03:23:16.896Z,56.97
2023-06-17T03:29:26.506Z,56.65
2023-06-17T03:32:28.610Z,56.38
2023-06-17T03:35:30.641Z,56.22
2023-06-17T03:38:32.864Z,55.95
2023-06-17T03:41:34.996Z,56.00
2023-06-17T03:44:37.614Z,55.22
2023-06-17T03:47:39.645Z,54.63
2023-06-17T03:50:41.638Z,54.48
2023-06-17T03:53:43.661Z,54.19
2023-06-17T03:56:46.077Z,53.36
2023-06-17T03:59:48.064Z,52.10
2023-06-17T04:02:51.227Z,52.04
2023-06-17T04:06:03.079Z,51.81
2023-06-17T04:09:06.465Z,51.42
2023-06-17T04:12:10.061Z,50.74
2023-06-17T04:15:11.896Z,50.67
2023-06-17T04:18:14.505Z,49.67
2023-06-17T04:21:16.686Z,49.45
2023-06-17T04:24:18.921Z,48.70
2023-06-17T04:27:21.620Z,48.88
2023-06-17T04:30:26.432Z,48.64
2023-06-17T04:33:31.942Z,48.36
2023-06-17T04:36:35.780Z,48.17
2023-06-17T04:39:38.148Z,47.13
2023-06-17T04:42:46.211Z,47.06
2023-06-17T04:45:48.563Z,47.07
2023-06-17T04:48:51.698Z,46.75
2023-06-17T04:51:53.849Z,46.54
2023-06-17T04:54:56.656Z,46.08
2023-06-17T04:57:58.822Z,45.93
2023-06-17T05:01:27.084Z,45.16
2023-06-17T05:04:29.194Z,44.22
2023-06-17T05:07:31.360Z,44.30
2023-06-17T05:10:33.221Z,42.82
2023-06-17T05:13:35.403Z,42.83
2023-06-17T05:16:38.980Z,42.30
2023-06-17T05:19:40.874Z,41.38
2023-06-17T05:22:42.865Z,41.29
2023-06-17T05:25:44.901Z,41.27
2023-06-17T05:28:46.845Z,41.27
2023-06-17T05:31:48.836Z,41.31
2023-06-17T05:34:51.864Z,41.02
2023-06-17T05:37:53.748Z,40.37
2023-06-17T05:40:55.680Z,40.11
2023-06-17T05:43:58.500Z,40.03
2023-06-17T05:47:00.866Z,39.93
2023-06-17T05:50:02.872Z,39.39
2023-06-17T05:53:05.477Z,39.02
2023-06-17T05:56:11.117Z,39.06
2023-06-17T05:59:13.208Z,38.84
2023-06-17T06:02:17.268Z,38.15
2023-06-17T06:05:19.494Z,38.49
2023-06-17T06:08:21.488Z,38.76
2023-06-17T06:11:23.391Z,38.46
2023-06-17T06:14:25.355Z,38.35
2023-06-17T06:17:29.372Z,37.69
2023-06-17T06:20:31.360Z,37.93
2023-06-17T06:23:33.144Z,36.65
2023-06-17T06:26:36.196Z,36.53
2023-06-17T06:29:38.736Z,36.46
2023-06-17T06:32:40.740Z,36.58
2023-06-17T06:35:43.647Z,36.46
2023-06-17T06:38:51.669Z,35.70
2023-06-17T06:41:54.723Z,35.42
2023-06-17T06:45:20.887Z,35.33
2023-06-17T06:48:22.745Z,34.52
2023-06-17T06:51:25.715Z,33.21
2023-06-17T06:54:27.794Z,33.43
2023-06-17T06:57:30.261Z,33.55
2023-06-17T07:00:32.233Z,33.68
2023-06-17T07:03:34.473Z,33.76
2023-06-17T07:06:36.521Z,33.72
2023-06-17T07:09:42.544Z,32.54
2023-06-17T07:12:44.319Z,33.19
2023-06-17T07:15:48.024Z,33.00
2023-06-17T07:18:50.462Z,32.89
2023-06-17T07:21:52.427Z,31.64
2023-06-17T07:24:54.397Z,32.44
2023-06-17T07:28:03.860Z,32.68
2023-06-17T07:31:06.635Z,31.83
2023-06-17T07:34:08.735Z,33.09
2023-06-17T07:37:10.655Z,32.74
2023-06-17T07:40:17.504Z,33.05
2023-06-17T07:43:19.590Z,33.28
2023-06-17T07:46:21.695Z,33.32
2023-06-17T07:49:23.644Z,33.23
2023-06-17T07:52:25.852Z,33.24
2023-06-17T07:55:30.283Z,32.80
2023-06-17T07:58:32.444Z,33.30
2023-06-17T08:01:34.807Z,33.79
2023-06-17T08:04:37.081Z,32.93
2023-06-17T08:07:38.916Z,32.83
2023-06-17T08:10:40.639Z,32.74
2023-06-17T08:13:42.539Z,33.26
2023-06-17T08:16:45.326Z,32.75
2023-06-17T08:19:47.453Z,32.16
2023-06-17T08:22:49.395Z,31.76
2023-06-17T08:25:51.373Z,31.36
2023-06-17T08:28:53.276Z,31.83
2023-06-17T08:31:55.642Z,31.16
2023-06-17T08:34:57.508Z,30.60
2023-06-17T08:37:59.368Z,31.08
2023-06-17T08:41:01.240Z,30.35
2023-06-17T08:44:05.631Z,30.03
2023-06-17T08:47:07.983Z,30.50
2023-06-17T08:50:11.229Z,30.48
2023-06-17T08:53:14.452Z,30.27
2023-06-17T08:56:16.368Z,30.08
2023-06-17T08:59:18.269Z,29.91
2023-06-17T09:02:22.350Z,29.32
2023-06-17T09:05:24.282Z,30.03
2023-06-17T09:08:26.467Z,29.47
2023-06-17T09:11:30.697Z,28.93
2023-06-17T09:14:33.361Z,29.41
2023-06-17T09:17:39.340Z,29.52
2023-06-17T09:20:41.297Z,29.84
2023-06-17T09:23:43.315Z,30.66
2023-06-17T09:26:46.588Z,31.14
2023-06-17T09:29:49.508Z,31.03
2023-06-17T09:32:53.331Z,30.28
2023-06-17T09:36:05.826Z,28.26
2023-06-17T09:39:10.082Z,28.41
2023-06-17T09:42:12.815Z,29.09
2023-06-17T09:45:24.944Z,28.54
2023-06-17T09:48:36.814Z,28.85
2023-06-17T09:51:40.187Z,29.15
2023-06-17T09:54:43.877Z,29.01
2023-06-17T09:57:46.203Z,28.54
2023-06-17T10:00:48.441Z,29.58
2023-06-17T10:03:50.675Z,29.72
2023-06-17T10:06:54.239Z,30.33
2023-06-17T10:09:56.324Z,31.04
2023-06-17T10:13:04.929Z,31.58
2023-06-17T10:16:10.747Z,32.01
2023-06-17T10:19:18.102Z,31.40
2023-06-17T10:22:22.971Z,30.81
2023-06-17T10:25:26.057Z,30.24
2023-06-17T10:28:47.071Z,28.97
2023-06-17T10:31:49.123Z,29.39
2023-06-17T10:35:20.722Z,29.19
2023-06-17T10:38:30.301Z,29.48
2023-06-17T10:41:45.818Z,28.71
2023-06-17T10:44:51.268Z,29.48
2023-06-17T10:48:16.522Z,30.14
2023-06-17T10:51:19.555Z,29.61
2023-06-17T10:54:31.989Z,29.89
2023-06-17T10:57:37.925Z,29.35
2023-06-17T11:00:39.912Z,29.59
2023-06-17T11:03:42.238Z,29.80
2023-06-17T11:06:46.953Z,29.87
2023-06-17T11:09:48.753Z,29.26
2023-06-17T11:12:51.745Z,29.45
2023-06-17T11:15:56.883Z,29.05
2023-06-17T11:19:00.346Z,28.50
2023-06-17T11:22:05.282Z,27.49
2023-06-17T11:25:10.444Z,27.67
2023-06-17T11:28:12.853Z,27.68
2023-06-17T11:31:14.814Z,27.02
2023-06-17T11:34:17.871Z,27.72
2023-06-17T11:37:20.054Z,28.04
2023-06-17T11:40:23.934Z,27.40
2023-06-17T11:43:29.436Z,28.12
2023-06-17T11:46:31.521Z,27.99
2023-06-17T11:49:34.052Z,27.65
2023-06-17T11:52:36.149Z,27.07
2023-06-17T11:55:38.093Z,27.50
2023-06-17T11:58:41.931Z,26.64
2023-06-17T12:01:43.918Z,26.99
2023-06-17T12:04:46.614Z,27.08
2023-06-17T12:07:48.498Z,27.15
2023-06-17T12:10:50.360Z,26.76
2023-06-17T12:13:52.694Z,26.82
2023-06-17T12:16:54.638Z,27.34
2023-06-17T12:20:03.483Z,27.25
2023-06-17T12:23:05.422Z,27.46
2023-06-17T12:26:07.400Z,26.93
2023-06-17T12:29:24.294Z,26.96
2023-06-17T12:32:29.127Z,26.67
2023-06-17T12:35:31.039Z,27.18
2023-06-17T12:38:33.080Z,27.13
2023-06-17T12:41:36.718Z,27.67
2023-06-17T12:44:38.620Z,27.37
2023-06-17T12:47:40.769Z,27.16
2023-06-17T12:50:42.670Z,26.89
2023-06-17T12:53:44.516Z,27.20
2023-06-17T12:56:46.439Z,27.06
2023-06-17T12:59:48.224Z,26.95
2023-06-17T13:02:50.129Z,27.05
2023-06-17T13:05:52.724Z,27.27
2023-06-17T13:08:55.434Z,26.96
2023-06-17T13:11:57.455Z,26.77
2023-06-17T13:14:59.312Z,27.22
2023-06-17T13:18:01.864Z,27.68
2023-06-17T13:21:03.898Z,27.78
2023-06-17T13:24:06.020Z,28.44
2023-06-17T13:27:07.970Z,28.24
2023-06-17T13:30:10.590Z,28.27
2023-06-17T13:33:12.863Z,27.96
2023-06-17T13:36:14.932Z,28.39
2023-06-17T13:39:16.996Z,28.02
2023-06-17T13:42:18.839Z,28.09
2023-06-17T13:45:20.860Z,28.32
2023-06-17T13:48:23.033Z,28.06
2023-06-17T13:51:24.953Z,27.89
2023-06-17T13:54:28.290Z,28.68
2023-06-17T13:57:30.291Z,28.32
2023-06-17T14:00:32.254Z,28.17
2023-06-17T14:03:34.369Z,28.14
2023-06-17T14:06:37.204Z,28.17
2023-06-17T14:09:39.067Z,27.70
2023-06-17T14:12:41.151Z,27.92
2023-06-17T14:15:43.110Z,27.77
2023-06-17T14:18:44.890Z,27.33
2023-06-17T14:21:59.890Z,27.71
2023-06-17T14:25:01.762Z,27.11
2023-06-17T14:28:05.089Z,27.04
2023-06-17T14:31:06.857Z,27.28
2023-06-17T14:34:08.692Z,27.20
2023-06-17T14:37:10.570Z,27.73
2023-06-17T14:40:13.813Z,28.02
2023-06-17T14:43:15.740Z,27.82
2023-06-17T14:46:17.754Z,28.18
2023-06-17T14:49:19.764Z,28.36
2023-06-17T14:52:22.024Z,27.82
2023-06-17T14:55:23.908Z,27.69
2023-06-17T14:58:25.847Z,27.57
2023-06-17T15:01:30.886Z,26.87
2023-06-17T15:04:32.792Z,26.33
2023-06-17T15:07:34.650Z,27.27
2023-06-17T15:10:36.511Z,26.78
2023-06-17T15:13:38.496Z,26.68
2023-06-17T15:16:40.794Z,26.57
2023-06-17T15:19:43.191Z,26.50
2023-06-17T15:22:45.254Z,26.13
2023-06-17T15:25:47.272Z,26.16
2023-06-17T15:28:49.098Z,25.88
2023-06-17T15:31:50.892Z,26.17
2023-06-17T15:34:53.189Z,25.90
2023-06-17T15:37:55.095Z,26.11
2023-06-17T15:40:56.933Z,26.47
2023-06-17T15:44:00.481Z,26.64
2023-06-17T15:47:02.390Z,26.80
2023-06-17T15:50:04.397Z,27.16
2023-06-17T15:53:06.356Z,26.92
2023-06-17T15:56:08.200Z,27.31
2023-06-17T15:59:10.047Z,27.34
2023-06-17T16:02:12.104Z,27.65
2023-06-17T16:05:14.542Z,27.67
2023-06-17T16:08:16.452Z,27.99
2023-06-17T16:11:19.332Z,28.15
2023-06-17T16:14:21.267Z,28.84
2023-06-17T16:17:23.168Z,28.72
2023-06-17T16:20:25.041Z,29.15
2023-06-17T16:23:26.982Z,29.67
2023-06-17T16:26:29.883Z,29.84
2023-06-17T16:29:32.409Z,29.84
2023-06-17T16:32:34.265Z,29.91
2023-06-17T16:35:36.230Z,30.24
2023-06-17T16:38:38.099Z,30.71
2023-06-17T16:41:43.133Z,30.79
2023-06-17T16:44:45.048Z,31.05
2023-06-17T16:47:46.913Z,31.27
2023-06-17T16:50:48.730Z,31.70
2023-06-17T16:53:50.579Z,32.60
2023-06-17T16:56:52.433Z,32.69
2023-06-17T16:59:54.179Z,33.74
2023-06-17T17:02:56.735Z,33.20
2023-06-17T17:05:58.660Z,33.88
2023-06-17T17:09:00.426Z,35.22
2023-06-17T17:12:05.888Z,35.42
2023-06-17T17:15:08.482Z,36.31
2023-06-17T17:18:10.506Z,37.22
2023-06-17T17:21:12.912Z,37.76
2023-06-17T17:24:14.854Z,38.37
2023-06-17T17:27:16.757Z,39.01
2023-06-17T17:30:18.688Z,41.60
2023-06-17T17:33:23.681Z,40.32
2023-06-17T17:36:26.080Z,40.80
2023-06-17T17:39:29.138Z,40.85
2023-06-17T17:42:30.937Z,41.26
2023-06-17T17:45:32.867Z,42.20
2023-06-17T17:48:34.632Z,43.18
2023-06-17T17:51:36.499Z,42.59
2023-06-17T17:54:46.441Z,42.48
2023-06-17T17:57:55.449Z,42.89
2023-06-17T18:01:02.328Z,43.26
2023-06-17T18:04:04.597Z,42.54
2023-06-17T18:07:06.479Z,43.71
2023-06-17T18:10:08.454Z,42.58
2023-06-17T18:13:10.323Z,43.42
2023-06-17T18:16:12.244Z,42.83
2023-06-17T18:19:17.994Z,43.63
2023-06-17T18:22:20.105Z,44.18
2023-06-17T18:25:22.113Z,44.52
2023-06-17T18:28:23.965Z,45.95
2023-06-17T18:31:26.997Z,46.55
2023-06-17T18:34:28.787Z,46.78
2023-06-17T18:37:30.779Z,47.22
2023-06-17T18:40:35.493Z,47.22
2023-06-17T18:43:37.351Z,47.28
2023-06-17T18:46:39.451Z,47.95
2023-06-17T18:49:41.936Z,48.88
2023-06-17T18:52:46.689Z,48.03
2023-06-17T18:55:48.504Z,48.43
2023-06-17T18:58:50.467Z,48.59
2023-06-17T19:01:52.516Z,49.08
2023-06-17T19:04:54.596Z,49.03
2023-06-17T19:07:56.743Z,48.56
2023-06-17T19:10:58.541Z,49.99
2023-06-17T19:14:03.369Z,49.70
2023-06-17T19:17:05.329Z,50.31
2023-06-17T19:20:11.428Z,50.03
2023-06-17T19:23:13.350Z,50.29
2023-06-17T19:26:15.291Z,50.68
2023-06-17T19:29:17.173Z,50.79
2023-06-17T19:32:19.024Z,50.76
2023-06-17T19:35:21.326Z,50.95
2023-06-17T19:38:23.276Z,51.15
2023-06-17T19:41:25.108Z,51.28
2023-06-17T19:44:33.530Z,51.45
2023-06-17T19:47:35.598Z,52.00
2023-06-17T19:50:37.474Z,52.46
2023-06-17T19:53:39.412Z,52.83
2023-06-17T19:56:41.621Z,52.78
2023-06-17T19:59:43.519Z,53.13
2023-06-17T20:02:45.527Z,53.35
2023-06-17T20:05:47.588Z,52.59
2023-06-17T20:08:49.640Z,52.54
2023-06-17T20:11:51.865Z,51.50
2023-06-17T20:14:53.736Z,51.90
2023-06-17T20:17:55.594Z,52.82
2023-06-17T20:20:57.420Z,53.07
2023-06-17T20:23:59.317Z,53.91
2023-06-17T20:27:01.276Z,53.94
2023-06-17T20:30:04.690Z,54.13
2023-06-17T20:33:06.618Z,54.04
2023-06-17T20:36:08.573Z,54.50
2023-06-17T20:39:10.502Z,54.67
2023-06-17T20:42:12.484Z,54.88
2023-06-17T20:45:14.497Z,55.42
2023-06-17T20:48:17.871Z,55.67
2023-06-17T20:51:19.833Z,55.66
2023-06-17T20:54:21.701Z,55.78
2023-06-17T20:57:23.628Z,55.33
2023-06-17T21:00:25.573Z,55.71
2023-06-17T21:03:27.498Z,55.77
2023-06-17T21:06:29.486Z,56.39
2023-06-17T21:09:31.483Z,55.82
2023-06-17T21:12:34.630Z,55.85
2023-06-17T21:15:36.545Z,55.68
2023-06-17T21:18:38.500Z,55.56
2023-06-17T21:21:40.439Z,55.62
2023-06-17T21:24:42.220Z,56.36
2023-06-17T21:27:44.130Z,56.99
2023-06-17T21:30:46.105Z,57.02
2023-06-17T21:33:50.175Z,56.97
2023-06-17T21:36:52.088Z,57.53
2023-06-17T21:39:53.963Z,58.42
2023-06-17T21:42:56.544Z,58.73
2023-06-17T21:45:58.508Z,58.68
2023-06-17T21:49:00.424Z,58.38
2023-06-17T21:52:02.312Z,59.15
2023-06-17T21:55:04.532Z,58.98
2023-06-17T21:58:06.360Z,59.04
2023-06-17T22:01:08.273Z,59.33
2023-06-17T22:04:10.153Z,59.21
2023-06-17T22:07:11.984Z,59.33
2023-06-17T22:10:14.271Z,59.35
2023-06-17T22:13:16.131Z,59.58
2023-06-17T22:16:18.106Z,59.41
2023-06-17T22:19:20.017Z,59.80
2023-06-17T22:22:21.905Z,58.97
2023-06-17T22:25:23.740Z,58.67
2023-06-17T22:28:25.772Z,57.85
2023-06-17T22:31:27.566Z,59.04
2023-06-17T22:34:29.452Z,58.83
2023-06-17T22:37:31.548Z,59.00
2023-06-17T22:40:33.389Z,59.67
2023-06-17T22:43:35.236Z,60.19
2023-06-17T22:46:37.194Z,60.35
2023-06-17T22:49:39.096Z,60.91
2023-06-17T22:52:40.910Z,60.87
2023-06-17T22:55:42.924Z,61.09
2023-06-17T22:58:45.866Z,61.34
2023-06-17T23:01:47.699Z,61.52
2023-06-17T23:04:50.210Z,61.59
2023-06-17T23:07:52.098Z,62.68
2023-06-17T23:10:53.972Z,61.94
2023-06-17T23:13:55.887Z,62.18
2023-06-17T23:16:58.136Z,61.67
2023-06-17T23:20:01.456Z,62.55
2023-06-17T23:23:05.061Z,61.94
2023-06-17T23:26:06.893Z,62.21
2023-06-17T23:29:12.791Z,62.45
2023-06-17T23:32:14.641Z,62.38
2023-06-17T23:35:16.588Z,63.44
2023-06-17T23:38:18.502Z,62.69
2023-06-17T23:41:20.428Z,62.86
2023-06-17T23:44:23.629Z,62.32
2023-06-17T23:47:25.509Z,63.21
2023-06-17T23:50:27.322Z,63.17
2023-06-17T23:53:29.099Z,63.96
2023-06-17T23:56:32.352Z,63.79
2023-06-17T23:59:35.287Z,63.62
